Time;durP1;ratioP1;P1;durP2;ratioP2;P2;SDS_P1;SDS_P2;PMS_P1;PMS_P2;Temp;Humidity;BMP_temperature;BMP_pressure;BME280_temperature;BME280_humidity;BME280_pressure;Samples;Min_cycle;Max_cycle;Signal;HPM_P1;HPM_P2
2021/07/06 00:00:58;;;;;;;0.73;0.20;;;;;;;-142.37;100.00;59669.53;4994984;28;20038;-58
2021/07/06 00:03:23;;;;;;;0.17;0.10;;;;;;;-142.37;100.00;59669.53;4995604;28;20026;-58
2021/07/06 00:05:49;;;;;;;2.05;0.40;;;;;;;-142.37;100.00;59669.53;4995163;28;20030;-58
2021/07/06 00:08:14;;;;;;;1.35;0.40;;;;;;;-142.37;100.00;59669.53;4995517;28;20068;-58
2021/07/06 00:10:40;;;;;;;0.40;0.10;;;;;;;-142.37;100.00;59669.53;4995219;28;20030;-58
2021/07/06 00:13:05;;;;;;;0.38;0.20;;;;;;;-142.37;100.00;59669.53;4994774;28;20041;-58
2021/07/06 00:15:31;;;;;;;0.28;0.10;;;;;;;-142.37;100.00;59669.53;4995085;28;20499;-58
2021/07/06 00:17:57;;;;;;;0.52;0.40;;;;;;;-142.37;100.00;59669.53;4994588;28;20026;-58
2021/07/06 00:20:26;;;;;;;0.30;0.20;;;;;;;-142.37;100.00;59669.53;4995613;28;20028;-58
2021/07/06 00:22:52;;;;;;;0.55;0.10;;;;;;;-142.37;100.00;59669.53;4994974;28;20477;-58
2021/07/06 00:25:17;;;;;;;0.52;0.20;;;;;;;-142.37;100.00;59669.53;4994995;28;20026;-58
2021/07/06 00:27:43;;;;;;;0.70;0.15;;;;;;;-142.37;100.00;59669.53;4995237;28;20022;-58
2021/07/06 00:30:09;;;;;;;1.60;0.38;;;;;;;-142.37;100.00;59669.53;4994695;28;20034;-58
2021/07/06 00:32:34;;;;;;;0.22;0.20;;;;;;;-142.37;100.00;59669.53;4994964;28;20057;-58
2021/07/06 00:35:00;;;;;;;1.02;0.25;;;;;;;-142.37;100.00;59669.53;4994764;28;20029;-58
2021/07/06 00:37:26;;;;;;;1.35;0.20;;;;;;;-142.37;100.00;59669.53;4994709;28;20092;-58
2021/07/06 00:39:52;;;;;;;0.98;0.32;;;;;;;-142.37;100.00;59669.53;4994991;28;20535;-59
2021/07/06 00:42:17;;;;;;;0.70;0.22;;;;;;;-142.37;100.00;59669.53;4994913;28;20030;-58
2021/07/06 00:44:45;;;;;;;1.27;0.20;;;;;;;-142.37;100.00;59669.53;4994228;28;20030;-58
2021/07/06 00:47:10;;;;;;;1.05;0.13;;;;;;;-142.37;100.00;59669.53;4994033;28;20033;-58
2021/07/06 00:49:36;;;;;;;0.30;0.30;;;;;;;-142.37;100.00;59669.53;4994681;28;20026;-58
2021/07/06 00:52:01;;;;;;;0.52;0.20;;;;;;;-142.37;100.00;59669.53;5011217;28;20033;-59
2021/07/06 00:54:27;;;;;;;0.88;0.30;;;;;;;-142.37;100.00;59669.53;5014368;28;20026;-58
2021/07/06 00:56:53;;;;;;;0.30;0.13;;;;;;;-142.37;100.00;59669.53;5013644;28;20028;-58
2021/07/06 00:59:21;;;;;;;0.30;0.10;;;;;;;-142.37;100.00;59669.53;5013537;28;20632;-58
2021/07/06 01:01:47;;;;;;;1.35;0.32;;;;;;;-142.37;100.00;59669.53;4999401;28;20460;-58
2021/07/06 01:04:12;;;;;;;1.33;0.50;;;;;;;-142.37;100.00;59669.53;4993365;28;20018;-58
2021/07/06 01:06:37;;;;;;;0.85;0.10;;;;;;;-142.37;100.00;59669.53;4994148;28;20453;-59
2021/07/06 01:09:04;;;;;;;0.30;0.30;;;;;;;-142.37;100.00;59669.53;4994202;28;20022;-58
2021/07/06 01:11:29;;;;;;;1.63;0.30;;;;;;;-142.37;100.00;59669.53;4994165;28;20816;-58
2021/07/06 01:13:55;;;;;;;0.63;0.38;;;;;;;-142.37;100.00;59669.53;4994477;28;20055;-58
2021/07/06 01:16:20;;;;;;;0.30;0.30;;;;;;;-142.37;100.00;59669.53;4994218;28;20040;-58
2021/07/06 01:18:46;;;;;;;0.88;0.32;;;;;;;-142.37;100.00;59669.53;4994261;28;20405;-58
2021/07/06 01:21:12;;;;;;;2.63;0.15;;;;;;;-142.37;100.00;59669.53;4993949;28;20032;-58
2021/07/06 01:23:37;;;;;;;0.77;0.20;;;;;;;-142.37;100.00;59669.53;4994117;28;20034;-58
2021/07/06 01:26:05;;;;;;;0.15;0.10;;;;;;;-142.37;100.00;59669.53;4994012;28;20027;-58
2021/07/06 01:28:31;;;;;;;0.22;0.20;;;;;;;-142.37;100.00;59669.53;4993919;28;20385;-58
2021/07/06 01:30:57;;;;;;;0.60;0.20;;;;;;;-142.37;100.00;59669.53;4999557;28;20018;-58
2021/07/06 01:33:25;;;;;;;1.45;0.22;;;;;;;-142.37;100.00;59669.53;5013605;28;20033;-58
2021/07/06 01:35:52;;;;;;;0.13;0.10;;;;;;;-142.37;100.00;59669.53;5013172;28;20036;-58
2021/07/06 01:38:17;;;;;;;0.90;0.25;;;;;;;-142.37;100.00;59669.53;5013564;28;20531;-58
2021/07/06 01:40:43;;;;;;;0.75;0.17;;;;;;;-142.37;100.00;59669.53;5013188;28;20030;-59
2021/07/06 01:43:08;;;;;;;0.43;0.20;;;;;;;-142.37;100.00;59669.53;5013429;28;20366;-58
2021/07/06 01:45:34;;;;;;;0.52;0.10;;;;;;;-142.37;100.00;59669.53;5012893;28;20445;-58
2021/07/06 01:48:02;;;;;;;0.30;0.10;;;;;;;-142.37;100.00;59669.53;5013269;28;20057;-58
2021/07/06 01:50:28;;;;;;;0.22;0.13;;;;;;;-142.37;100.00;59669.53;5013422;28;20534;-58
2021/07/06 01:52:57;;;;;;;2.47;0.60;;;;;;;-142.37;100.00;59669.53;5013367;28;20105;-58
2021/07/06 01:55:29;;;;;;;0.30;0.15;;;;;;;-142.37;100.00;59669.53;5012849;28;20037;-58
2021/07/06 01:57:56;;;;;;;0.40;0.10;;;;;;;-142.37;100.00;59669.53;5013012;28;20527;-58
2021/07/06 02:00:26;;;;;;;0.52;0.22;;;;;;;-142.37;100.00;59669.53;5012889;28;20112;-58
2021/07/06 02:02:55;;;;;;;0.30;0.20;;;;;;;-142.37;100.00;59669.53;5012898;28;20217;-58
2021/07/06 02:05:27;;;;;;;0.20;0.00;;;;;;;-142.37;100.00;59669.53;5012988;28;20026;-58
2021/07/06 02:07:54;;;;;;;1.27;0.30;;;;;;;-142.37;100.00;59669.53;5013099;28;20026;-58
2021/07/06 02:10:23;;;;;;;1.02;0.13;;;;;;;-142.37;100.00;59669.53;5014146;28;20030;-58
2021/07/06 02:12:49;;;;;;;1.00;0.20;;;;;;;-142.37;100.00;59669.53;5017264;28;20021;-58
2021/07/06 02:15:15;;;;;;;2.08;0.20;;;;;;;-142.37;100.00;59669.53;4999288;28;20053;-59
2021/07/06 02:17:46;;;;;;;0.15;0.10;;;;;;;-142.37;100.00;59669.53;5016757;28;20040;-58
2021/07/06 02:20:14;;;;;;;0.30;0.10;;;;;;;-142.37;100.00;59669.53;5016619;28;20034;-58
2021/07/06 02:22:41;;;;;;;0.30;0.10;;;;;;;-142.37;100.00;59669.53;5017036;28;20022;-58
2021/07/06 02:25:09;;;;;;;1.92;0.40;;;;;;;-142.37;100.00;59669.53;5016999;28;20025;-58
2021/07/06 02:27:34;;;;;;;1.00;0.30;;;;;;;-142.37;100.00;59669.53;5016944;28;20469;-58
2021/07/06 02:30:00;;;;;;;0.47;0.20;;;;;;;-142.37;100.00;59669.53;5015419;28;20030;-58
2021/07/06 02:32:25;;;;;;;0.75;0.20;;;;;;;-142.37;100.00;59669.53;4998389;28;20358;-58
2021/07/06 02:34:51;;;;;;;0.50;0.20;;;;;;;-142.37;100.00;59669.53;4997010;28;20026;-58
2021/07/06 02:37:18;;;;;;;0.20;0.10;;;;;;;-142.37;100.00;59669.53;4997365;28;20105;-58
2021/07/06 02:39:45;;;;;;;0.30;0.17;;;;;;;-142.37;100.00;59669.53;4996834;28;20026;-58
2021/07/06 02:42:11;;;;;;;0.15;0.15;;;;;;;-142.37;100.00;59669.53;4996551;28;20034;-58
2021/07/06 02:44:36;;;;;;;0.73;0.20;;;;;;;-142.37;100.00;59669.53;4997146;28;20084;-58
2021/07/06 02:47:01;;;;;;;1.00;0.20;;;;;;;-142.37;100.00;59669.53;4997057;28;20026;-60
2021/07/06 02:49:27;;;;;;;0.88;0.20;;;;;;;-142.37;100.00;59669.53;4996237;28;20482;-58
2021/07/06 02:51:52;;;;;;;0.65;0.28;;;;;;;-142.37;100.00;59669.53;4996689;28;20417;-58
2021/07/06 02:54:17;;;;;;;0.90;0.20;;;;;;;-142.37;100.00;59669.53;4997015;28;20026;-59
2021/07/06 02:56:43;;;;;;;1.13;0.30;;;;;;;-142.37;100.00;59669.53;4996138;28;20033;-58
2021/07/06 02:59:08;;;;;;;0.43;0.30;;;;;;;-142.37;100.00;59669.53;4996243;28;20049;-58
2021/07/06 03:01:33;;;;;;;1.67;0.35;;;;;;;-142.37;100.00;59669.53;4996828;28;20038;-58
2021/07/06 03:03:59;;;;;;;1.60;0.63;;;;;;;-142.37;100.00;59669.53;4996329;28;20085;-58
2021/07/06 03:06:27;;;;;;;0.95;0.55;;;;;;;-142.37;100.00;59669.53;4978706;28;20033;-58
2021/07/06 03:08:55;;;;;;;1.75;0.32;;;;;;;-142.37;100.00;59669.53;4996348;28;20030;-59
2021/07/06 03:11:21;;;;;;;0.32;0.10;;;;;;;-142.37;100.00;59669.53;4996309;28;20051;-59
2021/07/06 03:13:46;;;;;;;0.63;0.10;;;;;;;-142.37;100.00;59669.53;4996472;28;20024;-59
2021/07/06 03:16:11;;;;;;;1.98;0.50;;;;;;;-142.37;100.00;59669.53;4995915;28;20089;-59
2021/07/06 03:18:37;;;;;;;1.55;0.30;;;;;;;-142.37;100.00;59669.53;4995968;28;20026;-58
2021/07/06 03:21:02;;;;;;;0.73;0.20;;;;;;;-142.37;100.00;59669.53;4995826;28;20037;-58
2021/07/06 03:23:28;;;;;;;0.50;0.28;;;;;;;-142.37;100.00;59669.53;4996395;28;20030;-59
2021/07/06 03:25:54;;;;;;;0.30;0.10;;;;;;;-142.37;100.00;59669.53;4996325;28;20029;-59
2021/07/06 03:28:19;;;;;;;0.73;0.20;;;;;;;-142.37;100.00;59669.53;4996616;28;20124;-58
2021/07/06 03:30:45;;;;;;;0.82;0.20;;;;;;;-142.37;100.00;59669.53;4995916;28;20022;-59
2021/07/06 03:33:11;;;;;;;0.50;0.20;;;;;;;-142.37;100.00;59669.53;5011594;28;20381;-59
2021/07/06 03:35:38;;;;;;;0.88;0.20;;;;;;;-142.37;100.00;59669.53;5015686;28;20524;-58
2021/07/06 03:38:04;;;;;;;1.40;0.10;;;;;;;-142.37;100.00;59669.53;5015336;28;20030;-59
2021/07/06 03:40:30;;;;;;;1.45;0.30;;;;;;;-142.37;100.00;59669.53;5015830;28;20112;-58
2021/07/06 03:42:56;;;;;;;0.65;0.20;;;;;;;-142.37;100.00;59669.53;5015130;28;20531;-59
2021/07/06 03:45:23;;;;;;;1.45;0.30;;;;;;;-142.37;100.00;59669.53;5015340;28;20042;-58
2021/07/06 03:47:48;;;;;;;0.20;0.20;;;;;;;-142.37;100.00;59669.53;5015252;28;20144;-59
2021/07/06 03:50:19;;;;;;;0.55;0.20;;;;;;;-142.37;100.00;59669.53;5015343;28;20057;-59
2021/07/06 03:52:49;;;;;;;0.47;0.10;;;;;;;-142.37;100.00;59669.53;5015508;28;20026;-59
2021/07/06 03:55:16;;;;;;;1.27;0.20;;;;;;;-142.37;100.00;59669.53;5015150;28;20538;-58
2021/07/06 03:57:42;;;;;;;0.10;0.10;;;;;;;-142.37;100.00;59669.53;5014902;28;20041;-59
2021/07/06 04:00:10;;;;;;;1.70;0.20;;;;;;;-142.37;100.00;59669.53;5015233;28;20496;-59
2021/07/06 04:02:37;;;;;;;0.68;0.20;;;;;;;-142.37;100.00;59669.53;5014834;28;20399;-58
2021/07/06 04:05:05;;;;;;;0.17;0.10;;;;;;;-142.37;100.00;59669.53;5014948;28;20420;-59
2021/07/06 04:07:30;;;;;;;2.05;0.28;;;;;;;-142.37;100.00;59669.53;5010821;28;20469;-59
2021/07/06 04:09:56;;;;;;;0.70;0.20;;;;;;;-142.37;100.00;59669.53;4995418;28;20034;-59
2021/07/06 04:12:22;;;;;;;1.35;0.10;;;;;;;-142.37;100.00;59669.53;4994760;28;20022;-58
2021/07/06 04:14:47;;;;;;;0.50;0.10;;;;;;;-142.37;100.00;59669.53;4995327;28;20032;-58
2021/07/06 04:17:12;;;;;;;0.30;0.20;;;;;;;-142.37;100.00;59669.53;4995213;28;20026;-59
2021/07/06 04:19:38;;;;;;;0.57;0.20;;;;;;;-142.37;100.00;59669.53;4994985;28;20030;-58
2021/07/06 04:22:04;;;;;;;1.02;0.10;;;;;;;-142.37;100.00;59669.53;4994948;28;20063;-59
2021/07/06 04:24:30;;;;;;;0.73;0.38;;;;;;;-142.37;100.00;59669.53;4994298;28;20034;-59
2021/07/06 04:26:58;;;;;;;0.40;0.10;;;;;;;-142.37;100.00;59669.53;4994969;28;20022;-59
2021/07/06 04:29:24;;;;;;;0.17;0.10;;;;;;;-142.37;100.00;59669.53;4995034;28;20058;-58
2021/07/06 04:31:51;;;;;;;0.10;0.10;;;;;;;-142.37;100.00;59669.53;5008231;28;20503;-59
2021/07/06 04:34:16;;;;;;;0.57;0.25;;;;;;;-142.37;100.00;59669.53;5013851;28;20053;-58
2021/07/06 04:36:41;;;;;;;1.05;0.25;;;;;;;-142.37;100.00;59669.53;5014418;28;20057;-59
2021/07/06 04:39:07;;;;;;;0.63;0.17;;;;;;;-142.37;100.00;59669.53;5014339;28;20037;-58
2021/07/06 04:41:32;;;;;;;0.57;0.10;;;;;;;-142.37;100.00;59669.53;5014193;28;20022;-59
2021/07/06 04:43:57;;;;;;;0.30;0.00;;;;;;;-142.37;100.00;59669.53;5012337;28;20117;-58
2021/07/06 04:46:23;;;;;;;0.75;0.10;;;;;;;-142.37;100.00;59669.53;5002335;28;20133;-59
2021/07/06 04:48:48;;;;;;;0.50;0.05;;;;;;;-142.37;100.00;59669.53;4994705;28;20050;-59
2021/07/06 04:51:14;;;;;;;0.30;0.20;;;;;;;-142.37;100.00;59669.53;4994485;28;20022;-59
2021/07/06 04:53:41;;;;;;;0.75;0.10;;;;;;;-142.37;100.00;59669.53;4994646;28;20484;-59
2021/07/06 04:56:06;;;;;;;0.20;0.05;;;;;;;-142.37;100.00;59669.53;4994417;28;20026;-59
2021/07/06 04:58:32;;;;;;;0.55;0.17;;;;;;;-142.37;100.00;59669.53;4994303;28;20053;-59
2021/07/06 05:00:58;;;;;;;0.20;0.10;;;;;;;-142.37;100.00;59669.53;4994568;28;20030;-59
2021/07/06 05:03:24;;;;;;;0.35;0.20;;;;;;;-142.37;100.00;59669.53;4994382;28;20026;-59
2021/07/06 05:05:50;;;;;;;0.52;0.15;;;;;;;-142.37;100.00;59669.53;4994483;28;20113;-59
2021/07/06 05:08:15;;;;;;;0.65;0.20;;;;;;;-142.37;100.00;59669.53;4994412;28;20034;-59
2021/07/06 05:10:41;;;;;;;0.60;0.20;;;;;;;-142.37;100.00;59669.53;4976818;28;20034;-59
2021/07/06 05:13:06;;;;;;;1.17;0.20;;;;;;;-142.37;100.00;59669.53;4994038;28;20077;-59
2021/07/06 05:15:32;;;;;;;0.95;0.20;;;;;;;-142.37;100.00;59669.53;4994338;28;20018;-59
2021/07/06 05:17:58;;;;;;;0.50;0.10;;;;;;;-142.37;100.00;59669.53;4994071;28;20093;-58
2021/07/06 05:20:23;;;;;;;0.20;0.03;;;;;;;-142.37;100.00;59669.53;4994149;28;20045;-59
2021/07/06 05:22:48;;;;;;;1.85;0.30;;;;;;;-142.37;100.00;59669.53;4994286;28;20030;-59
2021/07/06 05:25:15;;;;;;;1.48;0.10;;;;;;;-142.37;100.00;59669.53;4993797;28;20381;-58
2021/07/06 05:27:42;;;;;;;1.02;0.47;;;;;;;-142.37;100.00;59669.53;4994155;28;20080;-59
2021/07/06 05:30:08;;;;;;;0.40;0.10;;;;;;;-142.37;100.00;59669.53;4994247;28;20026;-59
2021/07/06 05:32:37;;;;;;;0.30;0.10;;;;;;;-142.37;100.00;59669.53;4993874;28;20026;-59
2021/07/06 05:35:03;;;;;;;0.65;0.20;;;;;;;-142.37;100.00;59669.53;4994176;28;20033;-59
2021/07/06 05:37:28;;;;;;;0.20;0.00;;;;;;;-142.37;100.00;59669.53;4993750;28;20030;-59
2021/07/06 05:39:53;;;;;;;2.53;0.40;;;;;;;-142.37;100.00;59669.53;4994080;28;20481;-59
2021/07/06 05:42:19;;;;;;;0.50;0.43;;;;;;;-142.37;100.00;59669.53;4993741;28;20053;-59
2021/07/06 05:44:45;;;;;;;1.38;0.20;;;;;;;-142.37;100.00;59669.53;4993746;28;20354;-59
2021/07/06 05:47:11;;;;;;;0.20;0.15;;;;;;;-142.37;100.00;59669.53;4993960;28;20038;-59
2021/07/06 05:49:36;;;;;;;0.50;0.40;;;;;;;-142.37;100.00;59669.53;4993993;28;20034;-58
2021/07/06 05:52:02;;;;;;;1.45;0.40;;;;;;;-142.37;100.00;59669.53;4993655;28;20022;-59
2021/07/06 05:54:28;;;;;;;0.55;0.00;;;;;;;-142.37;100.00;59669.53;4993661;28;20030;-58
2021/07/06 05:56:53;;;;;;;0.80;0.10;;;;;;;-142.37;100.00;59669.53;4993971;28;20033;-58
2021/07/06 05:59:18;;;;;;;1.30;0.20;;;;;;;-142.37;100.00;59669.53;4993442;28;20053;-59
2021/07/06 06:01:44;;;;;;;0.80;0.20;;;;;;;-142.37;100.00;59669.53;4993806;28;20027;-62
2021/07/06 06:04:09;;;;;;;0.30;0.03;;;;;;;-142.37;100.00;59669.53;4993783;28;20457;-63
2021/07/06 06:06:34;;;;;;;0.43;0.10;;;;;;;-142.37;100.00;59669.53;4993845;28;20093;-62
2021/07/06 06:09:00;;;;;;;1.77;0.10;;;;;;;-142.37;100.00;59669.53;4993721;28;20034;-62
2021/07/06 06:11:25;;;;;;;0.90;0.25;;;;;;;-142.37;100.00;59669.53;4993833;28;20045;-62
2021/07/06 06:13:51;;;;;;;1.10;0.30;;;;;;;-142.37;100.00;59669.53;4993761;28;20105;-62
2021/07/06 06:16:16;;;;;;;0.43;0.30;;;;;;;-142.37;100.00;59669.53;4993845;28;20110;-62
2021/07/06 06:18:41;;;;;;;0.22;0.15;;;;;;;-142.37;100.00;59669.53;5013517;28;20053;-63
2021/07/06 06:21:07;;;;;;;1.42;0.22;;;;;;;-142.37;100.00;59669.53;4994739;28;20037;-62
2021/07/06 06:23:32;;;;;;;2.83;0.40;;;;;;;-142.37;100.00;59669.53;5013336;28;20027;-62
2021/07/06 06:25:58;;;;;;;1.90;0.20;;;;;;;-142.37;100.00;59669.53;5012460;28;20380;-62
2021/07/06 06:28:23;;;;;;;0.50;0.20;;;;;;;-142.37;100.00;59669.53;5013209;28;20034;-61
2021/07/06 06:30:48;;;;;;;1.73;0.38;;;;;;;-142.37;100.00;59669.53;5008329;28;20027;-62
2021/07/06 06:33:14;;;;;;;0.85;0.22;;;;;;;-142.37;100.00;59669.53;4993560;28;20597;-62
2021/07/06 06:35:40;;;;;;;0.50;0.03;;;;;;;-142.37;100.00;59669.53;4993606;28;20027;-61
2021/07/06 06:38:06;;;;;;;0.93;0.20;;;;;;;-142.37;100.00;59669.53;4993436;28;20033;-61
2021/07/06 06:40:32;;;;;;;0.25;0.20;;;;;;;-142.37;100.00;59669.53;4993227;28;20018;-63
2021/07/06 06:42:57;;;;;;;1.15;0.20;;;;;;;-142.37;100.00;59669.53;4993337;28;20022;-62
2021/07/06 06:45:23;;;;;;;0.30;0.10;;;;;;;-142.37;100.00;59669.53;4993295;28;20028;-62
2021/07/06 06:47:48;;;;;;;0.90;0.20;;;;;;;-142.37;100.00;59669.53;4993093;28;20048;-62
2021/07/06 06:50:14;;;;;;;1.05;0.28;;;;;;;-142.37;100.00;59669.53;4993309;28;20463;-63
2021/07/06 06:52:40;;;;;;;0.90;0.17;;;;;;;-142.37;100.00;59669.53;4993433;28;20026;-61
2021/07/06 06:55:07;;;;;;;0.70;0.15;;;;;;;-142.37;100.00;59669.53;4999851;28;20033;-62
2021/07/06 06:57:32;;;;;;;0.73;0.20;;;;;;;-142.37;100.00;59669.53;5014429;28;20065;-62
2021/07/06 06:59:58;;;;;;;1.30;0.10;;;;;;;-142.37;100.00;59669.53;5014233;28;20120;-63
2021/07/06 07:02:28;;;;;;;0.65;0.20;;;;;;;-142.37;100.00;59669.53;5015430;28;20048;-60
2021/07/06 07:04:54;;;;;;;0.63;0.20;;;;;;;-142.37;100.00;59669.53;5009886;28;20030;-63
2021/07/06 07:07:22;;;;;;;0.45;0.15;;;;;;;-142.37;100.00;59669.53;4999161;28;20026;-62
2021/07/06 07:09:48;;;;;;;0.45;0.20;;;;;;;-142.37;100.00;59669.53;5003264;28;20473;-62
2021/07/06 07:12:14;;;;;;;0.28;0.08;;;;;;;-142.37;100.00;59669.53;5014482;28;20048;-61
2021/07/06 07:14:41;;;;;;;0.70;0.20;;;;;;;-142.37;100.00;59669.53;5006384;28;20373;-63
2021/07/06 07:17:07;;;;;;;0.50;0.30;;;;;;;-142.37;100.00;59669.53;5009865;28;20030;-62
2021/07/06 07:19:33;;;;;;;0.80;0.28;;;;;;;-142.37;100.00;59669.53;5008712;28;20492;-62
2021/07/06 07:21:58;;;;;;;1.35;0.30;;;;;;;-142.37;100.00;59669.53;4998366;28;20073;-62
2021/07/06 07:24:24;;;;;;;0.90;0.40;;;;;;;-142.37;100.00;59669.53;4999466;28;20038;-63
2021/07/06 07:26:50;;;;;;;0.57;0.15;;;;;;;-142.37;100.00;59669.53;5008407;28;20022;-61
2021/07/06 07:29:16;;;;;;;2.47;0.70;;;;;;;-142.37;100.00;59669.53;5015315;28;20038;-63
2021/07/06 07:31:42;;;;;;;0.82;0.35;;;;;;;-142.37;100.00;59669.53;5015296;28;20042;-62
2021/07/06 07:34:07;;;;;;;2.25;0.63;;;;;;;-142.37;100.00;59669.53;4998355;28;20018;-61
2021/07/06 07:36:33;;;;;;;1.50;0.57;;;;;;;-142.37;100.00;59669.53;4996067;28;20535;-62
2021/07/06 07:38:58;;;;;;;1.85;0.80;;;;;;;-142.37;100.00;59669.53;4996608;28;20920;-63
2021/07/06 07:41:24;;;;;;;1.23;0.40;;;;;;;-142.37;100.00;59669.53;4996970;28;20064;-61
2021/07/06 07:43:53;;;;;;;1.02;0.40;;;;;;;-142.37;100.00;59669.53;4996412;28;20385;-62
2021/07/06 07:46:19;;;;;;;1.85;0.43;;;;;;;-142.37;100.00;59669.53;5011465;28;20068;-62
2021/07/06 07:48:46;;;;;;;1.13;0.35;;;;;;;-142.37;100.00;59669.53;5008033;28;20478;-63
2021/07/06 07:51:11;;;;;;;0.40;0.20;;;;;;;-142.37;100.00;59669.53;4996109;28;20038;-62
2021/07/06 07:53:36;;;;;;;1.63;0.30;;;;;;;-142.37;100.00;59669.53;4996596;28;20465;-64
2021/07/06 07:56:02;;;;;;;2.10;0.38;;;;;;;-142.37;100.00;59669.53;4999559;28;20026;-62
2021/07/06 07:58:27;;;;;;;0.35;0.22;;;;;;;-142.37;100.00;59669.53;4998911;28;20058;-63
2021/07/06 08:00:52;;;;;;;0.63;0.28;;;;;;;-142.37;100.00;59669.53;5013847;28;20030;-62
2021/07/06 08:03:18;;;;;;;0.80;0.28;;;;;;;-142.37;100.00;59669.53;5014055;28;20028;-63
2021/07/06 08:05:43;;;;;;;1.38;0.20;;;;;;;-142.37;100.00;59669.53;5014506;28;20026;-62
2021/07/06 08:08:08;;;;;;;0.80;0.20;;;;;;;-142.37;100.00;59669.53;5014971;28;20026;-64
2021/07/06 08:10:34;;;;;;;1.55;0.40;;;;;;;-142.37;100.00;59669.53;5012885;28;20037;-64
2021/07/06 08:12:59;;;;;;;1.05;0.30;;;;;;;-142.37;100.00;59669.53;5014291;28;20119;-63
2021/07/06 08:15:24;;;;;;;0.65;0.20;;;;;;;-142.37;100.00;59669.53;5015262;28;20032;-63
2021/07/06 08:17:50;;;;;;;0.43;0.10;;;;;;;-142.37;100.00;59669.53;4997489;28;20022;-64
2021/07/06 08:20:15;;;;;;;0.30;0.20;;;;;;;-142.37;100.00;59669.53;5015057;28;20083;-64
2021/07/06 08:22:41;;;;;;;2.03;0.15;;;;;;;-142.37;100.00;59669.53;5014920;28;20116;-62
2021/07/06 08:25:07;;;;;;;3.10;0.20;;;;;;;-142.37;100.00;59669.53;5014877;28;20068;-64
2021/07/06 08:27:33;;;;;;;0.10;0.10;;;;;;;-142.37;100.00;59669.53;5002318;28;20034;-63
2021/07/06 08:29:58;;;;;;;0.47;0.13;;;;;;;-142.37;100.00;59669.53;5003272;28;20044;-63
2021/07/06 08:32:23;;;;;;;0.40;0.20;;;;;;;-142.37;100.00;59669.53;5009965;28;20034;-63
2021/07/06 08:34:49;;;;;;;0.90;0.20;;;;;;;-142.37;100.00;59669.53;5008229;28;20030;-64
2021/07/06 08:37:14;;;;;;;0.93;0.40;;;;;;;-142.37;100.00;59669.53;5009985;28;20036;-61
2021/07/06 08:39:39;;;;;;;0.95;0.30;;;;;;;-142.37;100.00;59669.53;5009865;28;20491;-65
2021/07/06 08:42:07;;;;;;;2.05;0.30;;;;;;;-142.37;100.00;59669.53;4997219;28;20361;-63
2021/07/06 08:44:32;;;;;;;1.08;0.20;;;;;;;-142.37;100.00;59669.53;5010218;28;20472;-63
2021/07/06 08:47:01;;;;;;;2.22;0.60;;;;;;;-142.37;100.00;59669.53;5007012;28;20025;-63
2021/07/06 08:49:28;;;;;;;0.57;0.20;;;;;;;-142.37;100.00;59669.53;5014131;28;20080;-64
2021/07/06 08:51:53;;;;;;;2.17;0.68;;;;;;;-142.37;100.00;59669.53;5013890;28;20384;-62
2021/07/06 08:54:19;;;;;;;1.52;0.30;;;;;;;-142.37;100.00;59669.53;5013689;28;20615;-64
2021/07/06 08:56:45;;;;;;;1.42;0.40;;;;;;;-142.37;100.00;59669.53;5005490;28;20033;-64
2021/07/06 08:59:11;;;;;;;2.03;0.35;;;;;;;-142.37;100.00;59669.53;5051441;23;20145;-63
2021/07/06 09:01:36;;;;;;;1.25;0.30;;;;;;;-142.37;100.00;59669.53;5037421;28;20462;-63
2021/07/06 09:04:04;;;;;;;2.33;0.40;;;;;;;-142.37;100.00;59669.53;5036666;28;20545;-65
2021/07/06 09:06:33;;;;;;;2.20;0.63;;;;;;;-142.37;100.00;59669.53;5035359;28;20029;-63
2021/07/06 09:09:19;;;;;;;2.03;0.40;;;;;;;-142.37;100.00;59669.53;5033687;28;20052;-64
2021/07/06 09:11:47;;;;;;;2.78;0.60;;;;;;;-142.37;100.00;59669.53;5033228;28;20223;-64
2021/07/06 09:14:12;;;;;;;2.63;0.63;;;;;;;-142.37;100.00;59669.53;5035035;28;20029;-65
2021/07/06 09:16:38;;;;;;;1.35;0.45;;;;;;;-142.37;100.00;59669.53;5047093;28;20502;-61
2021/07/06 09:19:20;;;;;;;2.40;0.57;;;;;;;-142.37;100.00;59669.53;5052728;28;20032;-64
2021/07/06 09:21:46;;;;;;;1.67;0.57;;;;;;;-142.37;100.00;59669.53;5050638;28;20464;-64
2021/07/06 09:24:25;;;;;;;1.45;0.60;;;;;;;-142.37;100.00;59669.53;5045574;28;20048;-65
2021/07/06 09:26:51;;;;;;;2.00;0.40;;;;;;;-142.37;100.00;59669.53;5044447;28;20036;-63
2021/07/06 09:29:22;;;;;;;3.53;0.50;;;;;;;-142.37;100.00;59669.53;5038066;28;20036;-64
2021/07/06 09:31:47;;;;;;;1.23;0.50;;;;;;;-142.37;100.00;59669.53;5051883;28;20364;-64
2021/07/06 09:34:13;;;;;;;2.45;0.50;;;;;;;-142.37;100.00;59669.53;5042639;28;20036;-63
2021/07/06 09:36:47;;;;;;;2.42;0.77;;;;;;;-142.37;100.00;59669.53;5052783;28;20083;-65
2021/07/06 09:39:18;;;;;;;2.00;0.85;;;;;;;-142.37;100.00;59669.53;5050190;28;20044;-65
2021/07/06 09:42:08;;;;;;;1.92;0.60;;;;;;;-142.37;100.00;59669.53;5052120;28;20454;-64
2021/07/06 09:44:36;;;;;;;2.50;0.60;;;;;;;-142.37;100.00;59669.53;5042623;28;20107;-64
2021/07/06 09:47:08;;;;;;;4.65;1.00;;;;;;;-142.37;100.00;59669.53;5053088;28;20336;-65
2021/07/06 09:49:37;;;;;;;1.27;0.45;;;;;;;-142.37;100.00;59669.53;5044493;28;20408;-64
2021/07/06 09:52:14;;;;;;;2.10;0.60;;;;;;;-142.37;100.00;59669.53;5045416;28;20708;-63
2021/07/06 09:54:45;;;;;;;2.22;0.75;;;;;;;-142.37;100.00;59669.53;5032975;28;20429;-64
2021/07/06 09:57:25;;;;;;;1.40;0.50;;;;;;;-142.37;100.00;59669.53;5042596;28;20025;-65
2021/07/06 10:00:06;;;;;;;1.10;0.60;;;;;;;-142.37;100.00;59669.53;5040050;28;20034;-65
2021/07/06 10:02:32;;;;;;;3.17;1.13;;;;;;;-142.37;100.00;59669.53;5041457;28;20107;-66
2021/07/06 10:05:00;;;;;;;1.85;0.65;;;;;;;-142.37;100.00;59669.53;5052608;28;20029;-65
2021/07/06 10:07:27;;;;;;;1.67;0.60;;;;;;;-142.37;100.00;59669.53;5052802;28;20099;-63
2021/07/06 10:09:54;;;;;;;1.25;0.60;;;;;;;-142.37;100.00;59669.53;5051354;28;20024;-66
2021/07/06 10:12:21;;;;;;;2.65;0.70;;;;;;;-142.37;100.00;59669.53;5052889;28;20024;-65
2021/07/06 10:14:47;;;;;;;1.67;0.40;;;;;;;-142.37;100.00;59669.53;5050752;28;20071;-63
2021/07/06 10:17:14;;;;;;;1.10;0.40;;;;;;;-142.37;100.00;59669.53;5052734;28;20027;-64
2021/07/06 10:19:41;;;;;;;0.50;0.40;;;;;;;-142.37;100.00;59669.53;5052586;28;20048;-65
2021/07/06 10:22:07;;;;;;;1.70;0.40;;;;;;;-142.37;100.00;59669.53;5052728;28;20025;-65
2021/07/06 10:24:38;;;;;;;0.65;0.30;;;;;;;-142.37;100.00;59669.53;5052625;28;20064;-65
2021/07/06 10:27:07;;;;;;;1.65;0.52;;;;;;;-142.37;100.00;59669.53;5052655;28;20031;-65
2021/07/06 10:29:34;;;;;;;1.52;0.30;;;;;;;-142.37;100.00;59669.53;5052577;28;20379;-65
2021/07/06 10:32:00;;;;;;;0.95;0.50;;;;;;;-142.37;100.00;59669.53;5054477;28;20021;-63
2021/07/06 10:34:28;;;;;;;0.70;0.40;;;;;;;-142.37;100.00;59669.53;5056881;28;20025;-64
2021/07/06 10:36:59;;;;;;;1.13;0.20;;;;;;;-142.37;100.00;59669.53;5056452;28;20498;-66
2021/07/06 10:39:45;;;;;;;2.15;0.30;;;;;;;-142.37;100.00;59669.53;5056527;28;20027;-66
2021/07/06 10:42:11;;;;;;;0.57;0.47;;;;;;;-142.37;100.00;59669.53;5056455;28;20032;-64
2021/07/06 10:44:39;;;;;;;0.68;0.30;;;;;;;-142.37;100.00;59669.53;5056105;28;20033;-64
2021/07/06 10:47:25;;;;;;;0.73;0.30;;;;;;;-142.37;100.00;59669.53;5056025;28;20044;-65
2021/07/06 10:49:50;;;;;;;1.83;0.30;;;;;;;-142.37;100.00;59669.53;5055919;28;20036;-63
2021/07/06 10:52:33;;;;;;;2.00;0.85;;;;;;;-142.37;100.00;59669.53;5056234;28;20016;-64
2021/07/06 10:55:34;;;;;;;0.80;0.22;;;;;;;-142.37;100.00;59669.53;5056121;28;20452;-66
2021/07/06 10:57:59;;;;;;;0.50;0.30;;;;;;;-142.37;100.00;59669.53;5055654;28;20055;-64
2021/07/06 11:00:44;;;;;;;1.42;0.30;;;;;;;-142.37;100.00;59669.53;5056017;28;20662;-64
2021/07/06 11:03:16;;;;;;;0.47;0.30;;;;;;;-142.37;100.00;59669.53;5056060;28;20375;-64
2021/07/06 11:05:42;;;;;;;1.10;0.40;;;;;;;-142.37;100.00;59669.53;5054156;28;20028;-65
2021/07/06 11:08:08;;;;;;;1.83;0.20;;;;;;;-142.37;100.00;59669.53;5055154;28;21290;-64